sensor_id;sensor_type;location;lat;lon;timestamp;pressure;altitude;pressure_sealevel;temperature;humidity
56038;BME280;41907;47.848;9.000;2023-02-14T00:01:21;97590.00;;;0.97;100.00
56038;BME280;41907;47.848;9.000;2023-02-14T00:03:46;97594.88;;;0.93;100.00
56038;BME280;41907;47.848;9.000;2023-02-14T00:06:14;97586.56;;;0.90;100.00
56038;BME280;41907;47.848;9.000;2023-02-14T00:08:41;97592.22;;;0.80;100.00
56038;BME280;41907;47.848;9.000;2023-02-14T00:11:08;97588.75;;;0.66;100.00
56038;BME280;41907;47.848;9.000;2023-02-14T00:13:34;97584.06;;;0.49;100.00
56038;BME280;41907;47.848;9.000;2023-02-14T00:15:59;97590.94;;;0.50;100.00
56038;BME280;41907;47.848;9.000;2023-02-14T00:18:24;97589.94;;;0.51;100.00
56038;BME280;41907;47.848;9.000;2023-02-14T00:21:13;97587.50;;;0.49;100.00
56038;BME280;41907;47.848;9.000;2023-02-14T00:23:39;97591.00;;;0.63;100.00
56038;BME280;41907;47.848;9.000;2023-02-14T00:26:04;97589.56;;;0.60;100.00
56038;BME280;41907;47.848;9.000;2023-02-14T00:28:30;97587.78;;;0.74;100.00
56038;BME280;41907;47.848;9.000;2023-02-14T00:30:56;97589.94;;;0.57;100.00
56038;BME280;41907;47.848;9.000;2023-02-14T00:33:21;97594.38;;;0.57;100.00
56038;BME280;41907;47.848;9.000;2023-02-14T00:35:47;97599.00;;;0.42;100.00
56038;BME280;41907;47.848;9.000;2023-02-14T00:38:12;97594.34;;;0.37;100.00
56038;BME280;41907;47.848;9.000;2023-02-14T00:40:37;97596.66;;;0.12;100.00
56038;BME280;41907;47.848;9.000;2023-02-14T00:43:02;97591.88;;;0.22;100.00
56038;BME280;41907;47.848;9.000;2023-02-14T00:45:28;97592.09;;;0.27;100.00
56038;BME280;41907;47.848;9.000;2023-02-14T00:47:53;97596.19;;;0.43;100.00
56038;BME280;41907;47.848;9.000;2023-02-14T00:50:18;97592.94;;;0.41;100.00
56038;BME280;41907;47.848;9.000;2023-02-14T00:52:44;97590.41;;;0.07;100.00
56038;BME280;41907;47.848;9.000;2023-02-14T00:55:09;97584.72;;;-0.04;100.00
56038;BME280;41907;47.848;9.000;2023-02-14T00:57:34;97584.97;;;0.08;100.00
56038;BME280;41907;47.848;9.000;2023-02-14T01:00:00;97591.22;;;0.14;100.00
56038;BME280;41907;47.848;9.000;2023-02-14T01:02:25;97595.22;;;0.03;100.00
56038;BME280;41907;47.848;9.000;2023-02-14T01:04:50;97599.19;;;-0.08;100.00
56038;BME280;41907;47.848;9.000;2023-02-14T01:07:16;97602.19;;;-0.17;100.00
56038;BME280;41907;47.848;9.000;2023-02-14T01:09:41;97602.97;;;-0.23;100.00
56038;BME280;41907;47.848;9.000;2023-02-14T01:12:06;97599.56;;;-0.52;100.00
56038;BME280;41907;47.848;9.000;2023-02-14T01:14:32;97593.34;;;-0.44;100.00
56038;BME280;41907;47.848;9.000;2023-02-14T01:16:57;97590.75;;;-0.38;100.00
56038;BME280;41907;47.848;9.000;2023-02-14T01:19:22;97594.66;;;-0.27;100.00
56038;BME280;41907;47.848;9.000;2023-02-14T01:21:48;97591.88;;;-0.19;100.00
56038;BME280;41907;47.848;9.000;2023-02-14T01:24:13;97581.19;;;-0.24;100.00
56038;BME280;41907;47.848;9.000;2023-02-14T01:26:39;97583.00;;;-0.24;100.00
56038;BME280;41907;47.848;9.000;2023-02-14T01:29:05;97584.44;;;-0.15;100.00
56038;BME280;41907;47.848;9.000;2023-02-14T01:31:32;97585.25;;;-0.15;100.00
56038;BME280;41907;47.848;9.000;2023-02-14T01:33:58;97583.44;;;-0.14;100.00
56038;BME280;41907;47.848;9.000;2023-02-14T01:36:32;97586.28;;;-0.09;100.00
56038;BME280;41907;47.848;9.000;2023-02-14T01:39:03;97586.69;;;-0.12;100.00
56038;BME280;41907;47.848;9.000;2023-02-14T01:41:31;97585.25;;;-0.15;100.00
56038;BME280;41907;47.848;9.000;2023-02-14T01:44:05;97577.03;;;-0.05;100.00
56038;BME280;41907;47.848;9.000;2023-02-14T01:46:35;97566.53;;;-0.05;100.00
56038;BME280;41907;47.848;9.000;2023-02-14T01:51:30;97564.78;;;0.09;100.00
56038;BME280;41907;47.848;9.000;2023-02-14T01:53:57;97572.06;;;0.13;100.00
56038;BME280;41907;47.848;9.000;2023-02-14T01:56:29;97569.66;;;0.18;100.00
56038;BME280;41907;47.848;9.000;2023-02-14T01:58:59;97568.81;;;0.05;100.00
56038;BME280;41907;47.848;9.000;2023-02-14T02:01:25;97568.53;;;-0.14;100.00
56038;BME280;41907;47.848;9.000;2023-02-14T02:03:56;97564.28;;;-0.08;100.00
56038;BME280;41907;47.848;9.000;2023-02-14T02:10:17;97561.81;;;0.18;100.00
56038;BME280;41907;47.848;9.000;2023-02-14T02:12:17;97558.00;;;0.27;100.00
56038;BME280;41907;47.848;9.000;2023-02-14T02:14:43;97556.50;;;0.12;100.00
56038;BME280;41907;47.848;9.000;2023-02-14T02:21:00;97560.75;;;0.06;100.00
56038;BME280;41907;47.848;9.000;2023-02-14T02:24:04;97557.50;;;0.04;100.00
56038;BME280;41907;47.848;9.000;2023-02-14T02:37:18;97553.41;;;-0.12;100.00
56038;BME280;41907;47.848;9.000;2023-02-14T02:40:04;97556.59;;;-0.16;100.00
56038;BME280;41907;47.848;9.000;2023-02-14T02:42:48;97550.97;;;-0.20;100.00
56038;BME280;41907;47.848;9.000;2023-02-14T02:46:09;97545.72;;;-0.13;100.00
56038;BME280;41907;47.848;9.000;2023-02-14T02:48:38;97542.13;;;-0.06;100.00
56038;BME280;41907;47.848;9.000;2023-02-14T02:51:09;97545.84;;;-0.28;100.00
56038;BME280;41907;47.848;9.000;2023-02-14T02:53:59;97550.50;;;-0.30;100.00
56038;BME280;41907;47.848;9.000;2023-02-14T02:56:31;97543.19;;;-0.41;100.00
56038;BME280;41907;47.848;9.000;2023-02-14T03:04:25;97537.97;;;-0.34;100.00
56038;BME280;41907;47.848;9.000;2023-02-14T03:07:11;97531.97;;;-0.22;100.00
56038;BME280;41907;47.848;9.000;2023-02-14T03:10:24;97529.19;;;-0.07;100.00
56038;BME280;41907;47.848;9.000;2023-02-14T03:24:24;97512.09;;;0.10;100.00
56038;BME280;41907;47.848;9.000;2023-02-14T03:27:03;97508.09;;;0.14;100.00
56038;BME280;41907;47.848;9.000;2023-02-14T03:32:41;97519.94;;;-0.10;100.00
56038;BME280;41907;47.848;9.000;2023-02-14T03:35:29;97521.69;;;-0.17;100.00
56038;BME280;41907;47.848;9.000;2023-02-14T03:38:12;97522.66;;;-0.31;100.00
56038;BME280;41907;47.848;9.000;2023-02-14T03:40:46;97543.38;;;-0.43;100.00
56038;BME280;41907;47.848;9.000;2023-02-14T03:43:27;97541.28;;;-0.54;100.00
56038;BME280;41907;47.848;9.000;2023-02-14T03:46:00;97540.63;;;-0.62;100.00
56038;BME280;41907;47.848;9.000;2023-02-14T03:48:27;97545.72;;;-0.54;100.00
56038;BME280;41907;47.848;9.000;2023-02-14T03:50:56;97541.72;;;-0.50;100.00
56038;BME280;41907;47.848;9.000;2023-02-14T03:53:25;97543.22;;;-0.69;100.00
56038;BME280;41907;47.848;9.000;2023-02-14T03:56:22;97543.03;;;-0.67;100.00
56038;BME280;41907;47.848;9.000;2023-02-14T03:58:55;97549.63;;;-0.71;100.00
56038;BME280;41907;47.848;9.000;2023-02-14T04:03:47;97550.88;;;-0.67;100.00
56038;BME280;41907;47.848;9.000;2023-02-14T04:06:16;97541.16;;;-0.73;100.00
56038;BME280;41907;47.848;9.000;2023-02-14T04:08:41;97538.72;;;-0.75;100.00
56038;BME280;41907;47.848;9.000;2023-02-14T04:11:07;97539.16;;;-0.71;100.00
56038;BME280;41907;47.848;9.000;2023-02-14T04:13:34;97548.75;;;-0.51;100.00
56038;BME280;41907;47.848;9.000;2023-02-14T04:16:01;97550.78;;;-0.46;100.00
56038;BME280;41907;47.848;9.000;2023-02-14T04:18:26;97555.66;;;-0.78;100.00
56038;BME280;41907;47.848;9.000;2023-02-14T04:21:10;97552.22;;;-0.78;100.00
56038;BME280;41907;47.848;9.000;2023-02-14T04:23:35;97550.41;;;-0.78;100.00
56038;BME280;41907;47.848;9.000;2023-02-14T04:26:01;97553.44;;;-0.74;100.00
56038;BME280;41907;47.848;9.000;2023-02-14T04:28:28;97555.34;;;-0.61;100.00
56038;BME280;41907;47.848;9.000;2023-02-14T04:30:53;97554.69;;;-0.70;100.00
56038;BME280;41907;47.848;9.000;2023-02-14T04:33:19;97555.22;;;-0.81;100.00
56038;BME280;41907;47.848;9.000;2023-02-14T04:35:44;97564.91;;;-0.75;100.00
56038;BME280;41907;47.848;9.000;2023-02-14T04:38:10;97570.44;;;-0.63;100.00
56038;BME280;41907;47.848;9.000;2023-02-14T04:40:35;97570.03;;;-0.67;100.00
56038;BME280;41907;47.848;9.000;2023-02-14T04:43:01;97567.81;;;-0.63;100.00
56038;BME280;41907;47.848;9.000;2023-02-14T04:45:28;97568.09;;;-0.52;100.00
56038;BME280;41907;47.848;9.000;2023-02-14T04:47:54;97563.09;;;-0.47;100.00
56038;BME280;41907;47.848;9.000;2023-02-14T04:50:19;97565.69;;;-0.53;100.00
56038;BME280;41907;47.848;9.000;2023-02-14T04:52:45;97564.13;;;-0.48;100.00
56038;BME280;41907;47.848;9.000;2023-02-14T04:55:10;97560.97;;;-0.64;100.00
56038;BME280;41907;47.848;9.000;2023-02-14T04:57:35;97558.16;;;-0.63;100.00
56038;BME280;41907;47.848;9.000;2023-02-14T05:00:02;97558.63;;;-0.53;100.00
56038;BME280;41907;47.848;9.000;2023-02-14T05:02:27;97556.81;;;-0.52;100.00
56038;BME280;41907;47.848;9.000;2023-02-14T05:04:52;97552.56;;;-0.53;100.00
56038;BME280;41907;47.848;9.000;2023-02-14T05:07:18;97548.97;;;-0.52;100.00
56038;BME280;41907;47.848;9.000;2023-02-14T05:09:43;97540.06;;;-0.58;100.00
56038;BME280;41907;47.848;9.000;2023-02-14T05:12:08;97540.16;;;-0.72;100.00
56038;BME280;41907;47.848;9.000;2023-02-14T05:14:34;97535.50;;;-0.77;100.00
56038;BME280;41907;47.848;9.000;2023-02-14T05:16:59;97542.16;;;-0.75;100.00
56038;BME280;41907;47.848;9.000;2023-02-14T05:19:25;97540.59;;;-0.69;100.00
56038;BME280;41907;47.848;9.000;2023-02-14T05:21:51;97540.97;;;-0.72;100.00
56038;BME280;41907;47.848;9.000;2023-02-14T05:24:16;97531.22;;;-0.57;100.00
56038;BME280;41907;47.848;9.000;2023-02-14T05:26:42;97534.56;;;-0.63;100.00
56038;BME280;41907;47.848;9.000;2023-02-14T05:29:07;97521.59;;;-0.43;100.00
56038;BME280;41907;47.848;9.000;2023-02-14T05:31:32;97526.19;;;-0.52;100.00
56038;BME280;41907;47.848;9.000;2023-02-14T05:33:58;97530.34;;;-0.64;100.00
56038;BME280;41907;47.848;9.000;2023-02-14T05:36:23;97521.97;;;-0.81;100.00
56038;BME280;41907;47.848;9.000;2023-02-14T05:38:48;97523.25;;;-0.70;100.00
56038;BME280;41907;47.848;9.000;2023-02-14T05:41:14;97521.78;;;-0.79;100.00
56038;BME280;41907;47.848;9.000;2023-02-14T05:43:39;97535.31;;;-0.76;100.00
56038;BME280;41907;47.848;9.000;2023-02-14T05:46:04;97537.72;;;-0.74;100.00
56038;BME280;41907;47.848;9.000;2023-02-14T05:48:30;97545.81;;;-0.76;100.00
56038;BME280;41907;47.848;9.000;2023-02-14T05:50:55;97541.34;;;-0.75;100.00
56038;BME280;41907;47.848;9.000;2023-02-14T05:53:21;97546.53;;;-0.82;100.00
56038;BME280;41907;47.848;9.000;2023-02-14T05:55:46;97543.53;;;-0.85;100.00
56038;BME280;41907;47.848;9.000;2023-02-14T05:58:11;97554.88;;;-0.71;100.00
56038;BME280;41907;47.848;9.000;2023-02-14T06:00:37;97549.75;;;-0.58;100.00
56038;BME280;41907;47.848;9.000;2023-02-14T06:03:02;97549.75;;;-0.52;100.00
56038;BME280;41907;47.848;9.000;2023-02-14T06:05:28;97550.75;;;-0.53;100.00
56038;BME280;41907;47.848;9.000;2023-02-14T06:07:53;97543.06;;;-0.61;100.00
56038;BME280;41907;47.848;9.000;2023-02-14T06:10:20;97544.16;;;-0.49;100.00
56038;BME280;41907;47.848;9.000;2023-02-14T06:12:50;97546.78;;;-0.49;100.00
56038;BME280;41907;47.848;9.000;2023-02-14T06:15:16;97553.19;;;-0.51;100.00
56038;BME280;41907;47.848;9.000;2023-02-14T06:17:42;97548.75;;;-0.51;100.00
56038;BME280;41907;47.848;9.000;2023-02-14T06:20:08;97547.72;;;-0.56;100.00
56038;BME280;41907;47.848;9.000;2023-02-14T06:22:35;97556.53;;;-0.64;100.00
56038;BME280;41907;47.848;9.000;2023-02-14T06:25:01;97555.44;;;-0.48;100.00
56038;BME280;41907;47.848;9.000;2023-02-14T06:27:28;97560.81;;;-0.56;100.00
56038;BME280;41907;47.848;9.000;2023-02-14T06:29:54;97571.69;;;-0.59;100.00
56038;BME280;41907;47.848;9.000;2023-02-14T06:32:19;97573.56;;;-0.47;100.00
56038;BME280;41907;47.848;9.000;2023-02-14T06:34:45;97567.78;;;-0.42;100.00
56038;BME280;41907;47.848;9.000;2023-02-14T06:37:10;97573.81;;;-0.42;100.00
56038;BME280;41907;47.848;9.000;2023-02-14T06:39:35;97582.66;;;-0.49;100.00
56038;BME280;41907;47.848;9.000;2023-02-14T06:42:01;97581.53;;;-0.33;100.00
56038;BME280;41907;47.848;9.000;2023-02-14T06:44:26;97572.28;;;-0.29;100.00
56038;BME280;41907;47.848;9.000;2023-02-14T06:46:51;97580.28;;;-0.38;100.00
56038;BME280;41907;47.848;9.000;2023-02-14T06:49:17;97577.00;;;-0.46;100.00
56038;BME280;41907;47.848;9.000;2023-02-14T06:51:42;97576.78;;;-0.51;100.00
56038;BME280;41907;47.848;9.000;2023-02-14T06:54:07;97580.41;;;-0.52;100.00
56038;BME280;41907;47.848;9.000;2023-02-14T06:56:33;97592.88;;;-0.54;100.00
56038;BME280;41907;47.848;9.000;2023-02-14T06:58:58;97572.19;;;-0.43;100.00
56038;BME280;41907;47.848;9.000;2023-02-14T07:01:23;97586.78;;;-0.33;100.00
56038;BME280;41907;47.848;9.000;2023-02-14T07:03:49;97578.13;;;-0.27;100.00
56038;BME280;41907;47.848;9.000;2023-02-14T07:06:14;97578.75;;;-0.19;100.00
56038;BME280;41907;47.848;9.000;2023-02-14T07:08:39;97584.69;;;-0.10;100.00
56038;BME280;41907;47.848;9.000;2023-02-14T07:11:06;97591.97;;;-0.06;100.00
56038;BME280;41907;47.848;9.000;2023-02-14T07:13:32;97597.03;;;0.03;100.00
56038;BME280;41907;47.848;9.000;2023-02-14T07:15:57;97597.09;;;0.09;100.00
56038;BME280;41907;47.848;9.000;2023-02-14T07:18:22;97594.66;;;0.08;100.00
56038;BME280;41907;47.848;9.000;2023-02-14T07:20:49;97595.47;;;0.08;100.00
56038;BME280;41907;47.848;9.000;2023-02-14T07:23:14;97592.03;;;0.08;100.00
56038;BME280;41907;47.848;9.000;2023-02-14T07:25:39;97588.00;;;0.12;100.00
56038;BME280;41907;47.848;9.000;2023-02-14T07:28:05;97586.00;;;0.14;100.00
56038;BME280;41907;47.848;9.000;2023-02-14T07:30:30;97595.03;;;0.05;100.00
56038;BME280;41907;47.848;9.000;2023-02-14T07:32:56;97598.63;;;-0.03;100.00
56038;BME280;41907;47.848;9.000;2023-02-14T07:35:22;97581.59;;;-0.20;100.00
56038;BME280;41907;47.848;9.000;2023-02-14T07:37:49;97585.28;;;-0.08;100.00
56038;BME280;41907;47.848;9.000;2023-02-14T07:40:14;97578.66;;;-0.04;100.00
56038;BME280;41907;47.848;9.000;2023-02-14T07:42:40;97574.44;;;0.02;100.00
56038;BME280;41907;47.848;9.000;2023-02-14T07:45:05;97569.19;;;0.02;100.00
56038;BME280;41907;47.848;9.000;2023-02-14T07:47:31;97569.81;;;0.10;100.00
56038;BME280;41907;47.848;9.000;2023-02-14T07:49:57;97575.72;;;0.19;100.00
56038;BME280;41907;47.848;9.000;2023-02-14T07:52:22;97573.50;;;0.22;100.00
56038;BME280;41907;47.848;9.000;2023-02-14T07:54:48;97567.69;;;0.33;100.00
56038;BME280;41907;47.848;9.000;2023-02-14T07:57:13;97567.69;;;0.40;100.00
56038;BME280;41907;47.848;9.000;2023-02-14T07:59:38;97573.19;;;0.52;100.00
56038;BME280;41907;47.848;9.000;2023-02-14T08:02:04;97565.31;;;0.58;100.00
56038;BME280;41907;47.848;9.000;2023-02-14T08:04:29;97566.97;;;0.66;100.00
56038;BME280;41907;47.848;9.000;2023-02-14T08:06:55;97572.41;;;0.71;100.00
56038;BME280;41907;47.848;9.000;2023-02-14T08:09:21;97569.38;;;0.67;100.00
56038;BME280;41907;47.848;9.000;2023-02-14T08:11:53;97559.47;;;0.63;100.00
56038;BME280;41907;47.848;9.000;2023-02-14T08:14:38;97552.41;;;0.70;100.00
56038;BME280;41907;47.848;9.000;2023-02-14T08:17:04;97562.09;;;0.76;100.00
56038;BME280;41907;47.848;9.000;2023-02-14T08:19:32;97557.47;;;0.78;100.00
56038;BME280;41907;47.848;9.000;2023-02-14T08:21:57;97561.53;;;0.74;100.00
56038;BME280;41907;47.848;9.000;2023-02-14T08:24:23;97560.09;;;0.78;100.00
56038;BME280;41907;47.848;9.000;2023-02-14T08:26:49;97558.88;;;0.81;100.00
56038;BME280;41907;47.848;9.000;2023-02-14T08:29:14;97557.25;;;0.86;100.00
56038;BME280;41907;47.848;9.000;2023-02-14T08:31:39;97558.28;;;0.92;100.00
56038;BME280;41907;47.848;9.000;2023-02-14T08:34:05;97552.84;;;1.00;100.00
56038;BME280;41907;47.848;9.000;2023-02-14T08:36:31;97558.69;;;1.08;100.00
56038;BME280;41907;47.848;9.000;2023-02-14T08:38:56;97561.34;;;1.02;100.00
56038;BME280;41907;47.848;9.000;2023-02-14T08:41:22;97552.63;;;1.08;100.00
56038;BME280;41907;47.848;9.000;2023-02-14T08:43:48;97557.88;;;1.08;100.00
56038;BME280;41907;47.848;9.000;2023-02-14T08:46:14;97556.06;;;1.08;100.00
56038;BME280;41907;47.848;9.000;2023-02-14T08:48:41;97550.63;;;0.90;100.00
56038;BME280;41907;47.848;9.000;2023-02-14T08:51:09;97543.31;;;0.79;100.00
56038;BME280;41907;47.848;9.000;2023-02-14T08:53:35;97539.50;;;0.88;100.00
56038;BME280;41907;47.848;9.000;2023-02-14T08:56:02;97541.94;;;1.03;100.00
56038;BME280;41907;47.848;9.000;2023-02-14T08:58:28;97535.03;;;1.15;100.00
56038;BME280;41907;47.848;9.000;2023-02-14T09:00:53;97539.69;;;1.20;100.00
56038;BME280;41907;47.848;9.000;2023-02-14T09:03:20;97538.47;;;0.96;100.00
56038;BME280;41907;47.848;9.000;2023-02-14T09:05:45;97547.56;;;0.87;100.00
56038;BME280;41907;47.848;9.000;2023-02-14T09:08:10;97543.50;;;0.58;100.00
56038;BME280;41907;47.848;9.000;2023-02-14T09:10:35;97547.97;;;0.70;100.00
56038;BME280;41907;47.848;9.000;2023-02-14T09:13:01;97546.38;;;0.89;100.00
56038;BME280;41907;47.848;9.000;2023-02-14T09:15:26;97544.75;;;0.82;100.00
56038;BME280;41907;47.848;9.000;2023-02-14T09:17:52;97543.31;;;0.79;100.00
56038;BME280;41907;47.848;9.000;2023-02-14T09:20:17;97541.09;;;0.76;100.00
56038;BME280;41907;47.848;9.000;2023-02-14T09:22:42;97542.31;;;0.80;100.00
56038;BME280;41907;47.848;9.000;2023-02-14T09:25:08;97538.50;;;0.89;100.00
56038;BME280;41907;47.848;9.000;2023-02-14T09:27:34;97539.91;;;0.98;100.00
56038;BME280;41907;47.848;9.000;2023-02-14T09:29:59;97537.88;;;1.20;100.00
56038;BME280;41907;47.848;9.000;2023-02-14T09:32:24;97543.72;;;1.35;100.00
56038;BME280;41907;47.848;9.000;2023-02-14T09:34:51;97539.84;;;1.44;100.00
56038;BME280;41907;47.848;9.000;2023-02-14T09:37:16;97530.31;;;1.57;100.00
56038;BME280;41907;47.848;9.000;2023-02-14T09:39:42;97525.66;;;1.65;100.00
56038;BME280;41907;47.848;9.000;2023-02-14T09:42:39;97528.03;;;1.73;100.00
56038;BME280;41907;47.848;9.000;2023-02-14T09:45:09;97521.38;;;1.77;100.00
56038;BME280;41907;47.848;9.000;2023-02-14T09:47:56;97506.44;;;1.65;100.00
56038;BME280;41907;47.848;9.000;2023-02-14T09:50:32;97511.66;;;1.71;100.00
56038;BME280;41907;47.848;9.000;2023-02-14T09:53:07;97509.84;;;1.78;100.00
56038;BME280;41907;47.848;9.000;2023-02-14T09:55:46;97495.28;;;1.76;100.00
56038;BME280;41907;47.848;9.000;2023-02-14T09:58:21;97509.75;;;1.92;100.00
56038;BME280;41907;47.848;9.000;2023-02-14T10:01:04;97513.97;;;1.99;100.00
56038;BME280;41907;47.848;9.000;2023-02-14T10:03:50;97506.75;;;1.88;100.00
56038;BME280;41907;47.848;9.000;2023-02-14T10:11:57;97509.25;;;1.70;100.00
56038;BME280;41907;47.848;9.000;2023-02-14T10:14:26;97513.09;;;1.67;100.00
56038;BME280;41907;47.848;9.000;2023-02-14T10:17:57;97511.09;;;1.69;100.00
56038;BME280;41907;47.848;9.000;2023-02-14T10:20:34;97516.28;;;1.82;100.00
56038;BME280;41907;47.848;9.000;2023-02-14T10:26:00;97501.72;;;1.86;100.00
56038;BME280;41907;47.848;9.000;2023-02-14T10:28:32;97502.44;;;2.07;100.00
56038;BME280;41907;47.848;9.000;2023-02-14T10:31:19;97497.22;;;1.94;100.00
56038;BME280;41907;47.848;9.000;2023-02-14T10:39:06;97482.63;;;2.36;100.00
56038;BME280;41907;47.848;9.000;2023-02-14T10:42:34;97480.31;;;2.14;100.00
56038;BME280;41907;47.848;9.000;2023-02-14T10:47:25;97479.78;;;1.99;100.00
56038;BME280;41907;47.848;9.000;2023-02-14T10:52:37;97465.03;;;2.30;100.00
56038;BME280;41907;47.848;9.000;2023-02-14T10:55:14;97468.03;;;2.02;100.00
56038;BME280;41907;47.848;9.000;2023-02-14T10:57:44;97461.91;;;2.08;100.00
56038;BME280;41907;47.848;9.000;2023-02-14T11:00:21;97452.69;;;1.92;100.00
56038;BME280;41907;47.848;9.000;2023-02-14T11:02:51;97464.09;;;1.73;100.00
56038;BME280;41907;47.848;9.000;2023-02-14T11:05:31;97461.22;;;1.88;100.00
56038;BME280;41907;47.848;9.000;2023-02-14T11:07:58;97460.25;;;1.75;100.00
56038;BME280;41907;47.848;9.000;2023-02-14T11:10:26;97450.91;;;1.86;100.00
56038;BME280;41907;47.848;9.000;2023-02-14T11:12:54;97443.22;;;2.22;100.00
56038;BME280;41907;47.848;9.000;2023-02-14T11:15:25;97441.91;;;2.00;100.00
56038;BME280;41907;47.848;9.000;2023-02-14T11:20:32;97440.91;;;2.01;100.00
56038;BME280;41907;47.848;9.000;2023-02-14T11:22:57;97445.38;;;2.32;100.00
56038;BME280;41907;47.848;9.000;2023-02-14T11:25:25;97437.94;;;2.54;100.00
56038;BME280;41907;47.848;9.000;2023-02-14T11:27:56;97431.63;;;2.80;100.00
56038;BME280;41907;47.848;9.000;2023-02-14T11:30:30;97437.00;;;2.67;100.00
56038;BME280;41907;47.848;9.000;2023-02-14T11:32:56;97430.97;;;2.84;100.00
56038;BME280;41907;47.848;9.000;2023-02-14T11:35:23;97427.78;;;3.01;100.00
56038;BME280;41907;47.848;9.000;2023-02-14T11:37:53;97425.97;;;3.19;100.00
56038;BME280;41907;47.848;9.000;2023-02-14T11:42:52;97410.16;;;3.56;100.00
56038;BME280;41907;47.848;9.000;2023-02-14T11:45:34;97416.66;;;3.53;100.00
56038;BME280;41907;47.848;9.000;2023-02-14T11:48:25;97412.16;;;2.81;100.00
56038;BME280;41907;47.848;9.000;2023-02-14T11:51:10;97407.66;;;3.06;100.00
56038;BME280;41907;47.848;9.000;2023-02-14T11:56:07;97398.13;;;3.42;100.00
56038;BME280;41907;47.848;9.000;2023-02-14T11:58:39;97395.25;;;3.61;100.00
56038;BME280;41907;47.848;9.000;2023-02-14T12:01:08;97389.59;;;3.76;100.00
56038;BME280;41907;47.848;9.000;2023-02-14T12:03:43;97388.09;;;4.10;100.00
56038;BME280;41907;47.848;9.000;2023-02-14T12:06:10;97380.44;;;4.32;100.00
56038;BME280;41907;47.848;9.000;2023-02-14T12:08:37;97381.81;;;4.23;100.00
56038;BME280;41907;47.848;9.000;2023-02-14T12:11:20;97377.00;;;4.31;100.00
56038;BME280;41907;47.848;9.000;2023-02-14T12:13:53;97371.97;;;4.53;100.00
56038;BME280;41907;47.848;9.000;2023-02-14T12:16:31;97377.38;;;4.70;100.00
56038;BME280;41907;47.848;9.000;2023-02-14T12:19:06;97367.72;;;4.75;100.00
56038;BME280;41907;47.848;9.000;2023-02-14T12:24:26;97358.41;;;4.84;99.31
56038;BME280;41907;47.848;9.000;2023-02-14T12:27:18;97354.97;;;4.84;100.00
56038;BME280;41907;47.848;9.000;2023-02-14T12:30:20;97347.06;;;4.61;99.62
56038;BME280;41907;47.848;9.000;2023-02-14T12:32:48;97353.59;;;4.58;100.00
56038;BME280;41907;47.848;9.000;2023-02-14T12:40:19;97347.41;;;3.99;100.00
56038;BME280;41907;47.848;9.000;2023-02-14T12:51:23;97332.59;;;4.52;100.00
56038;BME280;41907;47.848;9.000;2023-02-14T12:56:41;97331.03;;;5.02;100.00
56038;BME280;41907;47.848;9.000;2023-02-14T12:59:40;97318.63;;;5.03;99.38
56038;BME280;41907;47.848;9.000;2023-02-14T13:05:15;97315.31;;;4.84;98.37
56038;BME280;41907;47.848;9.000;2023-02-14T13:08:14;97315.59;;;3.83;100.00
56038;BME280;41907;47.848;9.000;2023-02-14T13:13:54;97308.66;;;3.58;100.00
56038;BME280;41907;47.848;9.000;2023-02-14T13:16:39;97303.31;;;3.88;100.00
56038;BME280;41907;47.848;9.000;2023-02-14T13:21:55;97294.94;;;5.08;99.34
56038;BME280;41907;47.848;9.000;2023-02-14T13:24:24;97286.72;;;4.34;100.00
56038;BME280;41907;47.848;9.000;2023-02-14T13:26:55;97290.41;;;4.57;100.00
56038;BME280;41907;47.848;9.000;2023-02-14T13:29:23;97271.19;;;4.84;100.00
56038;BME280;41907;47.848;9.000;2023-02-14T13:31:56;97271.75;;;4.98;100.00
56038;BME280;41907;47.848;9.000;2023-02-14T13:34:38;97267.53;;;5.14;97.75
56038;BME280;41907;47.848;9.000;2023-02-14T13:37:10;97268.53;;;4.84;99.87
56038;BME280;41907;47.848;9.000;2023-02-14T13:39:47;97265.63;;;5.38;100.00
56038;BME280;41907;47.848;9.000;2023-02-14T13:56:02;97262.28;;;5.59;95.58
56038;BME280;41907;47.848;9.000;2023-02-14T13:58:28;97264.13;;;5.58;97.58
56038;BME280;41907;47.848;9.000;2023-02-14T14:00:54;97261.50;;;6.04;96.64
56038;BME280;41907;47.848;9.000;2023-02-14T14:11:00;97260.03;;;5.96;97.09
56038;BME280;41907;47.848;9.000;2023-02-14T14:21:38;97256.75;;;5.60;96.40
56038;BME280;41907;47.848;9.000;2023-02-14T14:24:16;97259.22;;;5.50;98.76
56038;BME280;41907;47.848;9.000;2023-02-14T14:27:29;97260.75;;;5.46;97.99
56038;BME280;41907;47.848;9.000;2023-02-14T14:29:39;97266.34;;;5.50;97.19
56038;BME280;41907;47.848;9.000;2023-02-14T14:32:10;97257.44;;;5.39;98.28
56038;BME280;41907;47.848;9.000;2023-02-14T14:34:35;97253.75;;;5.40;98.42
56038;BME280;41907;47.848;9.000;2023-02-14T14:37:03;97248.66;;;5.22;98.21
56038;BME280;41907;47.848;9.000;2023-02-14T14:39:31;97257.88;;;4.68;100.00
56038;BME280;41907;47.848;9.000;2023-02-14T14:42:07;97247.31;;;4.68;100.00
56038;BME280;41907;47.848;9.000;2023-02-14T14:44:34;97255.22;;;4.79;100.00
56038;BME280;41907;47.848;9.000;2023-02-14T14:47:00;97251.88;;;4.72;100.00
56038;BME280;41907;47.848;9.000;2023-02-14T14:49:26;97251.94;;;4.61;100.00
56038;BME280;41907;47.848;9.000;2023-02-14T14:51:53;97253.31;;;4.40;100.00
56038;BME280;41907;47.848;9.000;2023-02-14T14:54:21;97250.09;;;4.38;100.00
56038;BME280;41907;47.848;9.000;2023-02-14T14:56:52;97252.03;;;4.07;100.00
56038;BME280;41907;47.848;9.000;2023-02-14T15:01:47;97251.94;;;4.02;100.00
56038;BME280;41907;47.848;9.000;2023-02-14T15:04:33;97251.31;;;3.65;100.00
56038;BME280;41907;47.848;9.000;2023-02-14T15:07:32;97257.63;;;3.64;100.00
56038;BME280;41907;47.848;9.000;2023-02-14T15:09:58;97251.72;;;3.51;100.00
56038;BME280;41907;47.848;9.000;2023-02-14T15:12:24;97253.47;;;3.57;100.00
56038;BME280;41907;47.848;9.000;2023-02-14T15:15:11;97248.84;;;3.11;100.00
56038;BME280;41907;47.848;9.000;2023-02-14T15:17:38;97250.41;;;2.82;100.00
56038;BME280;41907;47.848;9.000;2023-02-14T15:20:13;97248.50;;;2.89;100.00
56038;BME280;41907;47.848;9.000;2023-02-14T15:25:32;97249.41;;;3.13;100.00